Strona główna
METAR-TAF:

METAR-TAF

Lotnisko :

Port lotniczy Belgrad

Belgrad, Serbia

Szerokość geograficzna: 44-49N, Długość geograficzna: 020-17E, wysokość: 96 m

Aktualna obserwacja pogody

Raport powstał 16 minut temu, godzina 02:00 UTC
Wiatr 1 kt z kierunków zmiennych
Temperatura 20°C
Wilgotność 94%
Ciśnienie 1023 hPa
Widzialność: 8000 m

METAR: LYBE 260200Z VRB01KT 8000 NSC 20/19 Q1023 NOSIG

czas: 04:16 (02:16 UTC)

Prognoza

Raport powstał 3 godziny i 16 minut temu, godzina 23:00 UTC
Prognoza ważna od 26 godzina 00 UTC do 26 godzina 24 UTC
Wiatr 5 kt od wschodnio-północny wschód
Widzialność 10 km lub więcej
Brak chmur poniżej 1500 m i brak chmur cumulonimbus
Przejściowo
od 26 godzina 02 UTC do 26 godzina 05 UTC
Widzialność: 3000 m
zamglenie

TAF: LYBE 252300Z 2600/2624 06005KT CAVOK TX32/2613Z TN20/2603Z TEMPO 2602/2605 3000 BR

Obserwacja i prognoza pogody dla ponad 4000 lotnisk (raport METAR i TAF).

Dostępne stacje oznaczono żółtymi i czerwonymi punktami na mapie.

Najedź kursorem aby zobaczyć nazwę stacji.

Kliknij aby zobaczyć obserwacje i prognozy pogody.

Aby zmienić mapę: kliknij na zielony przycisk z czarnym krzyżykiem, aby powiększyć; na zielony przycisk z myślnikiem, aby pomniejszyć; na zielone strzałki, aby przejść do map sąsiednich.


METAR-TAF: